createdAt,value
2023-04-12T00:03:21.634Z,25.02
2023-04-12T00:08:23.742Z,25.27
2023-04-12T00:13:25.725Z,23.77
2023-04-12T00:18:27.644Z,24.00
2023-04-12T00:23:29.553Z,22.10
2023-04-12T00:28:31.702Z,22.73
2023-04-12T00:33:36.939Z,23.50
2023-04-12T00:38:38.789Z,28.45
2023-04-12T00:43:41.495Z,23.97
2023-04-12T00:53:45.180Z,22.88
2023-04-12T00:58:47.145Z,23.57
2023-04-12T01:03:50.329Z,22.63
2023-04-12T01:09:01.628Z,23.02
2023-04-12T01:14:35.749Z,22.70
2023-04-12T01:25:26.154Z,22.48
2023-04-12T01:30:29.022Z,23.50
2023-04-12T01:35:32.853Z,23.75
2023-04-12T01:40:36.650Z,23.48
2023-04-12T01:45:38.749Z,23.20
2023-04-12T01:51:06.082Z,23.90
2023-04-12T01:56:09.328Z,23.27
2023-04-12T02:01:12.190Z,22.55
2023-04-12T02:06:14.121Z,22.63
2023-04-12T02:11:15.946Z,21.33
2023-04-12T02:16:17.800Z,24.20
2023-04-12T02:21:19.692Z,22.77
2023-04-12T02:26:21.545Z,21.80
2023-04-12T02:31:23.636Z,23.30
2023-04-12T02:36:25.639Z,22.27
2023-04-12T02:41:27.479Z,22.67
2023-04-12T02:46:29.489Z,21.53
2023-04-12T02:51:31.429Z,24.47
2023-04-12T02:56:36.040Z,26.27
2023-04-12T03:01:38.115Z,29.23
2023-04-12T03:06:40.120Z,25.10
2023-04-12T03:11:42.078Z,23.87
2023-04-12T03:16:44.017Z,23.80
2023-04-12T03:21:45.947Z,24.40
2023-04-12T03:26:47.912Z,23.27
2023-04-12T03:31:49.721Z,24.47
2023-04-12T03:36:51.637Z,25.07
2023-04-12T03:41:53.609Z,25.10
2023-04-12T03:46:55.586Z,24.20
2023-04-12T03:51:57.526Z,23.88
2023-04-12T03:56:59.406Z,24.67
2023-04-12T04:02:01.394Z,22.95
2023-04-12T04:07:03.490Z,25.15
2023-04-12T04:12:05.500Z,24.33
2023-04-12T04:17:07.337Z,25.13
2023-04-12T04:22:09.223Z,24.13
2023-04-12T04:27:11.088Z,25.45
2023-04-12T04:32:13.080Z,26.48
2023-04-12T04:37:16.054Z,25.83
2023-04-12T04:42:18.005Z,25.70
2023-04-12T04:47:19.900Z,25.02
2023-04-12T04:52:21.787Z,23.25
2023-04-12T04:57:24.593Z,22.38
2023-04-12T05:02:26.604Z,20.80
2023-04-12T05:07:28.644Z,21.70
2023-04-12T05:12:30.470Z,21.88
2023-04-12T05:17:32.405Z,21.60
2023-04-12T05:22:34.781Z,21.88
2023-04-12T05:27:36.683Z,21.00
2023-04-12T05:32:38.604Z,20.75
2023-04-12T05:37:40.499Z,21.27
2023-04-12T05:42:42.439Z,21.23
2023-04-12T05:47:44.304Z,21.52
2023-04-12T05:52:46.237Z,20.02
2023-04-12T05:57:48.171Z,19.20
2023-04-12T06:02:50.459Z,19.67
2023-04-12T06:07:52.537Z,17.30
2023-04-12T06:12:54.433Z,16.65
2023-04-12T06:17:56.354Z,18.02
2023-04-12T06:22:58.376Z,17.40
2023-04-12T06:28:00.382Z,15.80
2023-04-12T06:33:02.459Z,16.42
2023-04-12T06:38:04.565Z,15.80
2023-04-12T06:43:06.487Z,14.73
2023-04-12T06:48:08.510Z,16.00
2023-04-12T06:53:10.402Z,14.60
2023-04-12T06:58:12.297Z,15.60
2023-04-12T07:03:14.307Z,14.45
2023-04-12T07:08:16.137Z,14.93
2023-04-12T07:13:17.974Z,15.00
2023-04-12T07:18:19.998Z,15.23
2023-04-12T07:23:21.988Z,15.63
2023-04-12T07:28:23.855Z,15.02
2023-04-12T07:33:26.495Z,15.18
2023-04-12T07:38:28.529Z,15.60
2023-04-12T07:43:30.397Z,16.20
2023-04-12T07:48:32.286Z,15.85
2023-04-12T07:53:34.207Z,15.52
2023-04-12T07:58:36.068Z,17.05
2023-04-12T08:03:38.128Z,16.25
2023-04-12T08:08:40.147Z,13.98
2023-04-12T08:13:41.990Z,15.32
2023-04-12T08:18:43.841Z,13.35
2023-04-12T08:23:45.673Z,14.13
2023-04-12T08:33:49.245Z,11.70
2023-04-12T08:38:51.058Z,12.45
2023-04-12T08:43:52.962Z,11.38
2023-04-12T08:48:54.828Z,10.68
2023-04-12T08:53:57.067Z,11.65
2023-04-12T08:58:59.123Z,8.60
2023-04-12T09:04:06.146Z,9.70
2023-04-12T09:09:08.379Z,9.57
2023-04-12T09:19:37.829Z,11.02
2023-04-12T09:24:57.585Z,10.88
2023-04-12T09:30:09.219Z,11.45
2023-04-12T09:35:11.064Z,10.95
2023-04-12T09:40:13.096Z,11.55
2023-04-12T09:45:25.159Z,12.75
2023-04-12T09:50:28.240Z,12.52
2023-04-12T09:55:30.915Z,11.30
2023-04-12T10:00:32.936Z,10.93
2023-04-12T10:05:35.866Z,11.60
2023-04-12T10:10:37.845Z,11.68
2023-04-12T10:15:40.627Z,11.43
2023-04-12T10:20:42.710Z,11.18
2023-04-12T10:25:45.987Z,9.98
2023-04-12T10:30:48.175Z,9.52
2023-04-12T10:35:59.651Z,8.82
2023-04-12T10:41:17.910Z,9.55
2023-04-12T10:46:46.010Z,9.25
2023-04-12T10:52:08.813Z,8.82
2023-04-12T10:57:45.743Z,9.40
2023-04-12T11:03:09.263Z,9.02
2023-04-12T11:08:12.357Z,9.18
2023-04-12T11:13:14.725Z,9.73
2023-04-12T11:23:18.621Z,9.52
2023-04-12T11:28:28.484Z,8.40
2023-04-12T11:33:38.730Z,8.98
2023-04-12T11:38:41.263Z,8.25
2023-04-12T11:43:43.340Z,8.43
2023-04-12T11:48:45.877Z,8.52
2023-04-12T11:53:52.262Z,8.13
2023-04-12T11:58:54.063Z,8.75
2023-04-12T12:03:56.231Z,7.90
2023-04-12T12:08:58.344Z,8.35
2023-04-12T12:14:00.509Z,8.25
2023-04-12T12:24:07.257Z,8.02
2023-04-12T12:29:17.319Z,7.93
2023-04-12T12:34:19.212Z,7.93
2023-04-12T12:39:21.066Z,8.18
2023-04-12T12:44:23.867Z,8.27
2023-04-12T12:49:25.849Z,9.13
2023-04-12T12:54:40.135Z,8.38
2023-04-12T12:59:43.600Z,8.95
2023-04-12T13:04:45.576Z,8.40
2023-04-12T13:09:47.482Z,9.20
2023-04-12T13:14:49.284Z,8.88
2023-04-12T13:19:51.146Z,8.63
2023-04-12T13:24:53.022Z,8.30
2023-04-12T13:29:55.289Z,8.20
2023-04-12T13:40:00.138Z,8.98
2023-04-12T13:45:02.108Z,8.80
2023-04-12T13:50:06.133Z,8.95
2023-04-12T13:55:09.886Z,8.48
2023-04-12T14:00:12.613Z,8.27
2023-04-12T14:05:14.577Z,8.55
2023-04-12T14:10:16.533Z,9.65
2023-04-12T14:15:18.467Z,8.63
2023-04-12T14:20:20.320Z,8.60
2023-04-12T14:25:22.243Z,8.90
2023-04-12T14:30:24.067Z,8.82
2023-04-12T14:35:26.046Z,9.15
2023-04-12T14:40:27.952Z,7.65
2023-04-12T14:45:29.833Z,8.93
2023-04-12T14:50:32.054Z,8.73
2023-04-12T15:00:35.474Z,8.68
2023-04-12T15:05:37.335Z,8.18
2023-04-12T15:10:39.211Z,7.90
2023-04-12T15:15:41.960Z,8.25
2023-04-12T15:20:43.919Z,8.50
2023-04-12T15:25:45.751Z,8.43
2023-04-12T15:30:47.580Z,9.10
2023-04-12T15:35:49.544Z,8.00
2023-04-12T15:40:55.369Z,8.90
2023-04-12T15:45:57.677Z,8.80
2023-04-12T15:50:59.874Z,8.20
2023-04-12T15:56:01.748Z,8.73
2023-04-12T16:01:03.767Z,8.52
2023-04-12T16:06:05.984Z,8.52
2023-04-12T16:11:07.843Z,8.25
2023-04-12T16:16:09.802Z,7.15
2023-04-12T16:21:12.032Z,7.85
2023-04-12T16:26:14.968Z,7.65
2023-04-12T16:31:17.016Z,7.70
2023-04-12T16:36:19.224Z,8.93
2023-04-12T16:41:21.986Z,7.55
2023-04-12T16:46:24.397Z,7.60
2023-04-12T16:51:26.693Z,8.20
2023-04-12T16:56:28.591Z,9.02
2023-04-12T17:01:30.512Z,8.18
2023-04-12T17:06:32.427Z,8.70
2023-04-12T17:11:34.304Z,8.70
2023-04-12T17:16:36.297Z,9.05
2023-04-12T17:21:41.311Z,10.20
2023-04-12T17:26:43.256Z,9.80
2023-04-12T17:31:45.095Z,9.80
2023-04-12T17:36:47.012Z,9.35
2023-04-12T17:41:49.133Z,8.88
2023-04-12T17:46:51.113Z,10.15
2023-04-12T17:51:52.929Z,9.20
2023-04-12T17:56:54.787Z,9.47
2023-04-12T18:01:57.016Z,9.38
2023-04-12T18:06:58.946Z,10.50
2023-04-12T18:12:00.825Z,9.90
2023-04-12T18:17:02.665Z,9.70
2023-04-12T18:22:04.648Z,10.13
2023-04-12T18:27:06.833Z,9.55
2023-04-12T18:32:09.002Z,9.40
2023-04-12T18:37:10.973Z,9.60
2023-04-12T18:42:12.831Z,10.13
2023-04-12T18:47:14.860Z,9.65
2023-04-12T18:52:16.861Z,10.10
2023-04-12T18:57:18.757Z,10.32
2023-04-12T19:02:20.808Z,11.10
2023-04-12T19:07:22.869Z,10.48
2023-04-12T19:12:24.843Z,11.15
2023-04-12T19:17:26.739Z,10.90
2023-04-12T19:22:28.816Z,11.20
2023-04-12T19:27:30.614Z,11.75
2023-04-12T19:32:32.604Z,11.52
2023-04-12T19:37:34.639Z,12.02
2023-04-12T19:42:36.580Z,11.73
2023-04-12T19:47:38.840Z,12.15
2023-04-12T19:52:40.979Z,12.27
2023-04-12T19:57:42.862Z,12.15
2023-04-12T20:02:45.150Z,12.02
2023-04-12T20:07:47.165Z,10.88
2023-04-12T20:12:49.053Z,11.65
2023-04-12T20:17:51.050Z,10.82
2023-04-12T20:22:52.964Z,11.15
2023-04-12T20:27:54.875Z,8.77
2023-04-12T20:32:56.882Z,12.80
2023-04-12T20:37:58.895Z,12.43
2023-04-12T20:43:00.783Z,12.13
2023-04-12T20:48:02.675Z,11.67
2023-04-12T20:53:04.668Z,13.05
2023-04-12T20:58:08.051Z,13.20
2023-04-12T21:03:10.234Z,13.00
2023-04-12T21:08:12.197Z,13.25
2023-04-12T21:13:14.375Z,13.80
2023-04-12T21:18:16.467Z,13.38
2023-04-12T21:23:18.405Z,13.38
2023-04-12T21:28:20.353Z,13.60
2023-04-12T21:33:22.800Z,13.30
2023-04-12T21:38:24.753Z,13.27
2023-04-12T21:43:26.626Z,14.07
2023-04-12T21:48:28.526Z,14.70
2023-04-12T21:53:30.488Z,14.87
2023-04-12T21:58:33.040Z,15.45
2023-04-12T22:08:36.724Z,14.45
2023-04-12T22:13:38.722Z,15.30
2023-04-12T22:18:40.891Z,14.35
2023-04-12T22:23:43.695Z,14.98
2023-04-12T22:28:45.530Z,15.40
2023-04-12T22:33:47.428Z,16.23
2023-04-12T22:38:49.327Z,14.50
2023-04-12T22:43:51.153Z,14.57
2023-04-12T22:48:53.011Z,14.67
2023-04-12T22:53:54.831Z,14.37
2023-04-12T22:58:56.634Z,14.83
2023-04-12T23:03:58.655Z,14.90
2023-04-12T23:09:00.735Z,13.68
2023-04-12T23:14:02.887Z,13.93
2023-04-12T23:19:04.934Z,13.32
2023-04-12T23:24:07.321Z,14.10
2023-04-12T23:29:09.203Z,13.68
2023-04-12T23:34:11.185Z,13.53
2023-04-12T23:39:13.001Z,14.50
2023-04-12T23:44:14.815Z,14.50
2023-04-12T23:49:16.662Z,14.10
2023-04-12T23:54:18.582Z,14.23
2023-04-12T23:59:20.494Z,13.73
